Time;durP1;ratioP1;P1;durP2;ratioP2;P2;SDS_P1;SDS_P2;PMS_P1;PMS_P2;Temp;Humidity;BMP_temperature;BMP_pressure;BME280_temperature;BME280_humidity;BME280_pressure;Samples;Min_cycle;Max_cycle;Signal;HPM_P1;HPM_P2
2022/08/17 00:00:33;;;;;;;44.15;39.35;;;18.40;99.90;;;;;;5051554;28;20454;-41
2022/08/17 00:03:13;;;;;;;36.47;30.27;;;19.80;99.90;;;;;;5051338;28;20049;-43
2022/08/17 00:06:03;;;;;;;35.92;28.52;;;18.10;99.90;;;;;;5051519;28;20040;-41
2022/08/17 00:08:57;;;;;;;36.22;31.05;;;20.30;99.90;;;;;;5051823;28;20119;-41
2022/08/17 00:11:28;;;;;;;36.05;31.95;;;18.00;99.90;;;;;;5028872;28;20421;-43
2022/08/17 00:14:00;;;;;;;36.60;30.65;;;18.10;99.90;;;;;;5029835;28;20059;-42
2022/08/17 00:16:33;;;;;;;43.42;34.30;;;17.80;99.90;;;;;;5012488;28;20076;-41
2022/08/17 00:19:05;;;;;;;37.50;32.85;;;18.10;99.90;;;;;;5029749;28;20457;-44
2022/08/17 00:21:31;;;;;;;38.40;34.08;;;18.20;99.90;;;;;;5029774;28;20045;-41
2022/08/17 00:23:58;;;;;;;32.38;28.98;;;17.80;99.90;;;;;;5028706;28;20561;-42
2022/08/17 00:26:26;;;;;;;33.85;29.95;;;17.70;99.90;;;;;;5028715;28;20037;-42
2022/08/17 00:28:52;;;;;;;32.00;28.42;;;17.90;99.90;;;;;;5029466;28;20049;-41
2022/08/17 00:31:18;;;;;;;30.70;27.48;;;18.40;99.90;;;;;;5029058;28;20049;-42
2022/08/17 00:33:46;;;;;;;31.92;28.63;;;17.70;99.90;;;;;;5029182;28;20033;-40
2022/08/17 00:36:13;;;;;;;34.90;31.02;;;17.60;99.90;;;;;;5010959;28;20080;-41
2022/08/17 00:38:39;;;;;;;30.02;26.67;;;18.20;99.90;;;;;;5011797;28;20049;-42
2022/08/17 00:41:18;;;;;;;29.52;25.33;;;19.90;99.90;;;;;;5029323;28;21131;-41
2022/08/17 00:43:45;;;;;;;25.45;22.83;;;17.50;99.90;;;;;;5013852;28;20049;-42
2022/08/17 00:46:18;;;;;;;22.98;20.58;;;17.50;99.90;;;;;;5031784;28;20558;-40
2022/08/17 00:48:44;;;;;;;27.50;24.63;;;17.50;99.90;;;;;;5048558;28;20143;-41
2022/08/17 00:51:22;;;;;;;28.58;24.20;;;17.50;99.90;;;;;;5056723;28;20708;-43
2022/08/17 00:54:01;;;;;;;26.15;23.35;;;17.50;99.90;;;;;;5054643;28;20045;-41
2022/08/17 00:56:32;;;;;;;18.70;16.88;;;17.50;99.90;;;;;;5056138;28;20040;-40
2022/08/17 00:59:01;;;;;;;18.63;16.70;;;18.40;99.90;;;;;;5057697;28;20055;-42
2022/08/17 01:01:27;;;;;;;20.55;18.45;;;17.30;99.90;;;;;;5054929;28;20045;-40
2022/08/17 01:03:54;;;;;;;18.02;16.23;;;16.50;99.90;;;;;;5055610;28;20072;-41
2022/08/17 01:06:21;;;;;;;20.40;18.30;;;19.20;99.90;;;;;;5054013;28;20036;-42
2022/08/17 01:08:48;;;;;;;22.70;20.40;;;17.10;99.90;;;;;;5055170;28;20047;-41
2022/08/17 01:11:16;;;;;;;25.83;22.52;;;15.40;99.90;;;;;;5054708;28;20632;-40
2022/08/17 01:13:43;;;;;;;23.40;21.00;;;19.20;99.90;;;;;;5055656;28;20049;-40
2022/08/17 01:16:31;;;;;;;23.95;21.52;;;16.90;99.90;;;;;;5054975;28;20051;-43
2022/08/17 01:19:12;;;;;;;19.05;17.10;;;17.00;99.90;;;;;;5030180;28;20286;-40
2022/08/17 01:21:53;;;;;;;25.65;19.88;;;17.10;99.90;;;;;;5015877;28;20190;-41
2022/08/17 01:24:18;;;;;;;34.92;22.27;;;19.20;99.90;;;;;;5031458;28;20064;-41
2022/08/17 01:26:46;;;;;;;24.35;21.60;;;16.90;99.90;;;;;;5032298;28;20462;-42
2022/08/17 01:29:11;;;;;;;22.30;19.77;;;17.10;99.90;;;;;;5031628;28;20128;-40
2022/08/17 01:31:44;;;;;;;67.32;20.73;;;16.90;99.90;;;;;;5032133;28;20068;-42
2022/08/17 01:34:11;;;;;;;87.07;23.13;;;16.70;99.90;;;;;;5031744;28;20061;-41
2022/08/17 01:36:40;;;;;;;30.08;23.10;;;16.80;99.90;;;;;;5032086;28;20160;-41
2022/08/17 01:39:10;;;;;;;64.80;24.48;;;16.60;99.90;;;;;;5033111;28;20051;-40
2022/08/17 01:41:39;;;;;;;24.80;21.40;;;17.90;99.90;;;;;;5031102;28;20468;-41
2022/08/17 01:44:06;;;;;;;23.88;20.60;;;16.60;99.90;;;;;;5032194;28;20190;-41
2022/08/17 01:46:35;;;;;;;19.90;17.90;;;16.60;99.90;;;;;;5031683;28;20063;-40
2022/08/17 01:49:06;;;;;;;23.00;20.30;;;17.00;99.90;;;;;;5032776;28;20114;-42
2022/08/17 01:51:32;;;;;;;22.00;19.40;;;18.00;99.90;;;;;;5033167;28;20048;-42
2022/08/17 01:54:04;;;;;;;19.92;17.80;;;16.70;99.90;;;;;;5034017;28;20049;-40
2022/08/17 01:56:31;;;;;;;25.65;20.88;;;16.80;99.90;;;;;;5047525;28;20052;-40
2022/08/17 01:58:56;;;;;;;99.55;27.15;;;18.30;99.90;;;;;;5054705;28;21070;-42
2022/08/17 02:01:25;;;;;;;75.28;31.25;;;18.10;99.90;;;;;;5053372;28;20594;-40
2022/08/17 02:03:53;;;;;;;35.47;26.40;;;16.60;99.90;;;;;;5054776;28;20530;-40
2022/08/17 02:06:19;;;;;;;156.88;33.85;;;15.10;99.90;;;;;;5053602;28;20497;-41
2022/08/17 02:08:45;;;;;;;251.35;32.47;;;16.50;99.90;;;;;;5056500;28;20045;-41
2022/08/17 02:11:15;;;;;;;118.68;26.98;;;16.40;99.90;;;;;;5055347;28;20400;-40
2022/08/17 02:13:44;;;;;;;32.22;24.42;;;16.50;99.90;;;;;;5053087;28;20572;-40
2022/08/17 02:16:10;;;;;;;27.38;24.48;;;16.20;99.90;;;;;;5053930;28;20047;-39
2022/08/17 02:18:35;;;;;;;27.70;23.45;;;16.30;99.90;;;;;;5053295;28;20041;-41
2022/08/17 02:21:01;;;;;;;28.25;24.42;;;17.00;99.90;;;;;;5054247;28;20047;-39
2022/08/17 02:23:30;;;;;;;25.88;23.17;;;16.20;99.90;;;;;;5054043;28;20044;-39
2022/08/17 02:25:58;;;;;;;26.88;24.08;;;18.20;99.90;;;;;;5050294;28;20048;-39
2022/08/17 02:28:27;;;;;;;27.38;24.20;;;16.40;99.90;;;;;;5053237;28;20048;-39
2022/08/17 02:30:54;;;;;;;26.75;23.95;;;16.20;99.90;;;;;;5044830;28;20754;-38
2022/08/17 02:33:20;;;;;;;23.23;20.83;;;16.10;99.90;;;;;;5052899;28;21488;-38
2022/08/17 02:35:48;;;;;;;29.80;19.85;;;16.10;99.90;;;;;;5053823;28;20773;-39
2022/08/17 02:38:14;;;;;;;42.10;29.73;;;16.80;99.90;;;;;;5053262;28;20043;-38
2022/08/17 02:40:40;;;;;;;30.23;24.63;;;16.00;99.90;;;;;;5053111;28;20044;-38
2022/08/17 02:43:08;;;;;;;28.05;22.45;;;18.20;99.90;;;;;;5053737;28;20040;-39
2022/08/17 02:45:34;;;;;;;55.28;29.17;;;16.50;99.90;;;;;;5054109;28;20119;-38
2022/08/17 02:48:00;;;;;;;28.77;25.67;;;16.30;99.90;;;;;;5053499;28;20536;-38
2022/08/17 02:50:26;;;;;;;24.38;21.88;;;18.30;99.90;;;;;;5053920;28;20040;-39
2022/08/17 02:52:52;;;;;;;24.65;22.17;;;16.30;99.90;;;;;;5053278;28;20055;-38
2022/08/17 02:55:20;;;;;;;56.95;25.23;;;16.30;99.90;;;;;;5053289;28;20049;-38
2022/08/17 02:57:47;;;;;;;33.17;24.15;;;17.80;99.90;;;;;;5054434;28;20049;-37
2022/08/17 03:00:22;;;;;;;25.60;22.98;;;16.20;99.90;;;;;;5052692;28;20048;-37
2022/08/17 03:02:48;;;;;;;28.08;25.15;;;16.20;99.90;;;;;;5053139;28;20141;-39
2022/08/17 03:05:17;;;;;;;32.28;25.83;;;16.10;99.90;;;;;;5054430;28;20139;-38
2022/08/17 03:07:43;;;;;;;25.77;23.08;;;16.20;99.90;;;;;;5054804;28;20071;-38
2022/08/17 03:10:10;;;;;;;25.77;23.13;;;16.60;99.90;;;;;;5052578;28;20136;-39
2022/08/17 03:12:38;;;;;;;27.38;24.65;;;17.10;99.90;;;;;;5053200;28;20036;-39
2022/08/17 03:15:26;;;;;;;28.98;26.27;;;16.50;99.90;;;;;;5054373;28;20049;-38
2022/08/17 03:17:54;;;;;;;30.35;27.38;;;16.20;99.90;;;;;;5054717;28;20041;-39
2022/08/17 03:20:20;;;;;;;28.50;25.70;;;16.30;99.90;;;;;;5055040;28;20082;-38
2022/08/17 03:22:48;;;;;;;29.33;26.38;;;16.20;99.90;;;;;;5053927;28;20037;-38
2022/08/17 03:25:17;;;;;;;28.33;25.52;;;16.90;99.90;;;;;;5052934;28;20500;-39
2022/08/17 03:27:43;;;;;;;30.00;27.05;;;16.40;99.90;;;;;;5051053;28;20451;-38
2022/08/17 03:30:10;;;;;;;41.42;33.58;;;16.30;99.90;;;;;;5052470;28;20106;-39
2022/08/17 03:32:41;;;;;;;39.45;33.33;;;16.20;99.90;;;;;;5051775;28;20062;-38
2022/08/17 03:35:09;;;;;;;73.25;38.92;;;18.70;99.90;;;;;;5053607;28;20044;-38
2022/08/17 03:37:35;;;;;;;219.90;51.08;;;17.10;99.90;;;;;;5052739;28;20405;-38
2022/08/17 03:40:01;;;;;;;458.42;69.07;;;16.60;99.90;;;;;;5085289;28;20052;-38
2022/08/17 03:42:27;;;;;;;68.88;42.15;;;16.70;99.90;;;;;;5051840;28;20043;-38
2022/08/17 03:44:56;;;;;;;96.68;45.60;;;16.60;99.90;;;;;;5053024;28;20033;-38
2022/08/17 03:58:23;;;;;;;75.45;36.50;;;17.20;99.90;;;;;;5052425;28;20121;-38
2022/08/17 04:00:49;;;;;;;122.50;43.65;;;17.20;99.90;;;;;;5052171;28;20044;-38
2022/08/17 04:03:16;;;;;;;130.13;41.88;;;17.30;99.90;;;;;;5051486;28;20664;-38
2022/08/17 04:05:41;;;;;;;75.05;36.00;;;19.30;99.90;;;;;;5051620;28;20041;-38
2022/08/17 04:08:07;;;;;;;118.75;40.03;;;19.30;99.90;;;;;;5052593;28;20041;-38
2022/08/17 04:10:34;;;;;;;73.22;31.02;;;18.00;99.90;;;;;;5052665;28;20040;-38
2022/08/17 04:13:03;;;;;;;328.90;50.88;;;17.30;99.90;;;;;;5053063;28;20094;-38
2022/08/17 04:15:29;;;;;;;199.02;47.78;;;18.20;99.90;;;;;;5052078;28;20056;-37
2022/08/17 04:17:55;;;;;;;287.20;52.08;;;17.00;99.90;;;;;;5054248;28;20451;-37
2022/08/17 04:20:23;;;;;;;186.23;37.05;;;17.70;99.90;;;;;;5058205;28;20132;-37
2022/08/17 04:23:01;;;;;;;235.70;40.70;;;16.90;99.90;;;;;;5058436;28;20044;-37
2022/08/17 04:25:31;;;;;;;232.90;42.15;;;17.50;99.90;;;;;;5056720;28;20372;-37
2022/08/17 04:27:57;;;;;;;514.85;66.72;;;16.80;99.90;;;;;;5055636;28;20792;-37
2022/08/17 04:30:24;;;;;;;419.63;54.25;;;16.80;99.90;;;;;;5058468;28;20036;-37
2022/08/17 04:32:57;;;;;;;346.60;51.30;;;16.90;99.90;;;;;;5057021;28;20040;-37
2022/08/17 04:35:29;;;;;;;95.97;33.15;;;17.60;99.90;;;;;;5057940;28;20076;-37
2022/08/17 04:37:55;;;;;;;148.68;38.13;;;16.90;99.90;;;;;;5057272;28;20049;-36
2022/08/17 04:43:09;;;;;;;72.32;28.13;;;18.70;99.90;;;;;;5055818;28;20358;-37
2022/08/17 04:45:46;;;;;;;186.13;39.90;;;17.40;99.90;;;;;;5055860;28;20177;-37
2022/08/17 04:48:16;;;;;;;299.23;46.33;;;18.10;99.90;;;;;;5056885;28;20074;-37
2022/08/17 04:50:45;;;;;;;492.08;75.88;;;19.10;99.90;;;;;;5057004;28;20497;-37
2022/08/17 04:53:11;;;;;;;479.45;63.53;;;16.70;99.90;;;;;;5056146;28;20041;-36
2022/08/17 04:55:38;;;;;;;289.48;52.08;;;16.80;99.90;;;;;;5055544;28;20040;-37
2022/08/17 04:58:04;;;;;;;153.35;39.20;;;18.50;99.90;;;;;;5055070;28;20904;-37
2022/08/17 05:00:32;;;;;;;350.52;62.65;;;16.90;99.90;;;;;;5056374;28;20185;-37
2022/08/17 05:02:59;;;;;;;184.98;50.83;;;16.80;99.90;;;;;;5054560;28;20048;-37
2022/08/17 05:05:30;;;;;;;299.83;59.42;;;16.90;99.90;;;;;;5054462;28;20032;-37
2022/08/17 05:07:58;;;;;;;78.07;35.45;;;16.90;99.90;;;;;;5055300;28;20077;-37
2022/08/17 05:10:26;;;;;;;331.40;66.05;;;17.10;99.90;;;;;;5055013;28;20051;-37
2022/08/17 05:13:02;;;;;;;314.67;66.85;;;16.90;99.90;;;;;;5055041;28;20084;-37
2022/08/17 05:15:29;;;;;;;147.63;49.75;;;16.70;99.90;;;;;;5054173;28;20393;-37
2022/08/17 05:17:55;;;;;;;210.93;57.60;;;18.20;99.90;;;;;;5054353;28;20479;-37
2022/08/17 05:20:22;;;;;;;143.73;48.50;;;16.70;99.90;;;;;;5052765;28;21062;-37
2022/08/17 05:22:50;;;;;;;57.67;41.03;;;16.90;99.90;;;;;;5054817;28;20193;-37
2022/08/17 05:25:21;;;;;;;156.82;54.17;;;16.90;99.90;;;;;;5054706;28;20670;-37
2022/08/17 05:27:47;;;;;;;94.70;47.95;;;16.90;99.90;;;;;;5055012;28;20060;-37
2022/08/17 05:30:14;;;;;;;114.18;49.25;;;18.70;99.90;;;;;;5055200;28;20036;-37
2022/08/17 05:32:54;;;;;;;57.53;38.63;;;18.00;99.90;;;;;;5054051;28;20734;-37
2022/08/17 05:35:21;;;;;;;103.90;45.08;;;16.90;99.90;;;;;;5055893;28;20044;-37
2022/08/17 05:37:46;;;;;;;174.40;50.05;;;16.90;99.90;;;;;;5055121;28;20036;-37
2022/08/17 05:40:12;;;;;;;156.48;50.60;;;16.90;99.90;;;;;;5055647;28;20040;-37
2022/08/17 05:42:38;;;;;;;100.35;45.35;;;17.00;99.90;;;;;;5054697;28;20044;-37
2022/08/17 05:45:05;;;;;;;58.78;35.25;;;17.00;99.90;;;;;;5055314;28;20074;-37
2022/08/17 05:47:31;;;;;;;99.55;45.08;;;17.00;99.90;;;;;;5055316;28;20123;-38
2022/08/17 05:49:57;;;;;;;193.23;57.05;;;17.80;99.90;;;;;;5055860;28;20483;-38
2022/08/17 05:52:39;;;;;;;176.02;55.08;;;19.30;99.90;;;;;;5056361;28;20572;-37
2022/08/17 05:55:44;;;;;;;55.05;36.38;;;17.10;99.90;;;;;;5055101;28;20592;-38
2022/08/17 05:58:23;;;;;;;44.38;35.08;;;17.10;99.90;;;;;;5054303;28;20028;-38
2022/08/17 06:01:09;;;;;;;41.20;35.17;;;17.10;99.90;;;;;;5053544;28;20044;-38
2022/08/17 06:04:02;;;;;;;60.95;42.60;;;17.80;99.90;;;;;;5030767;28;20551;-38
2022/08/17 06:06:57;;;;;;;69.53;45.70;;;18.20;99.90;;;;;;5030453;28;20053;-39
2022/08/17 06:09:28;;;;;;;70.55;43.42;;;17.30;99.90;;;;;;4953367;28;20059;-38
2022/08/17 06:12:13;;;;;;;78.68;44.85;;;17.30;99.90;;;;;;4954204;28;20070;-37
2022/08/17 06:14:58;;;;;;;39.97;33.45;;;17.20;99.90;;;;;;4953630;28;20078;-38
2022/08/17 06:17:25;;;;;;;44.45;37.00;;;17.70;99.90;;;;;;4953508;28;20492;-37
2022/08/17 06:20:03;;;;;;;102.63;51.05;;;17.10;99.90;;;;;;4953783;28;20059;-37
2022/08/17 06:22:33;;;;;;;91.05;49.25;;;17.40;99.90;;;;;;4954119;28;21042;-37
2022/08/17 06:25:01;;;;;;;73.65;46.67;;;17.40;99.90;;;;;;4953276;28;20046;-38
2022/08/17 06:27:40;;;;;;;44.40;34.08;;;17.50;99.90;;;;;;4953139;28;20614;-38
2022/08/17 06:30:15;;;;;;;52.90;39.30;;;17.50;99.90;;;;;;4954242;28;20046;-37
2022/08/17 06:32:43;;;;;;;51.65;38.15;;;17.70;99.90;;;;;;4952084;28;20047;-36
2022/08/17 06:35:12;;;;;;;42.38;33.60;;;19.00;99.90;;;;;;4952697;28;21168;-36
2022/08/17 06:38:13;;;;;;;42.83;36.05;;;17.70;99.90;;;;;;4953093;28;20713;-36
2022/08/17 06:40:58;;;;;;;41.70;33.97;;;17.90;99.90;;;;;;4895844;29;20612;-37
2022/08/17 06:43:47;;;;;;;46.95;37.70;;;17.60;99.90;;;;;;4895226;29;20079;-37
2022/08/17 06:46:36;;;;;;;41.03;34.45;;;17.90;99.90;;;;;;4934053;28;20050;-37
2022/08/17 06:49:25;;;;;;;44.60;37.70;;;17.90;99.90;;;;;;4952667;28;20042;-37
2022/08/17 06:52:05;;;;;;;36.22;31.77;;;18.20;99.90;;;;;;4954681;28;20046;-37
2022/08/17 06:55:04;;;;;;;35.70;31.92;;;17.00;99.90;;;;;;4953704;28;20070;-38
2022/08/17 06:57:37;;;;;;;47.45;35.00;;;18.20;99.90;;;;;;4902474;29;20130;-37
2022/08/17 07:00:32;;;;;;;37.38;31.63;;;18.30;99.90;;;;;;4903167;29;20348;-37
2022/08/17 07:03:06;;;;;;;44.30;36.45;;;18.10;99.90;;;;;;4906421;29;20062;-37
2022/08/17 07:05:46;;;;;;;51.08;40.45;;;18.20;99.90;;;;;;4904615;29;20131;-37
2022/08/17 07:08:33;;;;;;;63.13;44.45;;;18.40;99.90;;;;;;4906684;29;20059;-37
2022/08/17 07:11:16;;;;;;;63.83;45.20;;;18.40;99.90;;;;;;4903699;29;20051;-38
2022/08/17 07:14:19;;;;;;;78.80;53.13;;;18.40;99.90;;;;;;4906596;29;20248;-37
2022/08/17 07:16:50;;;;;;;74.68;53.17;;;18.40;99.90;;;;;;4900616;29;20048;-37
2022/08/17 07:19:18;;;;;;;88.43;57.58;;;18.50;99.90;;;;;;4894658;29;20044;-38
2022/08/17 07:22:00;;;;;;;104.60;60.50;;;18.80;99.90;;;;;;4896358;29;20204;-37
2022/08/17 07:24:29;;;;;;;76.53;54.10;;;18.80;99.90;;;;;;4951447;28;20046;-37
2022/08/17 07:27:12;;;;;;;83.43;55.60;;;18.90;99.90;;;;;;4952215;28;20054;-37
2022/08/17 07:30:05;;;;;;;66.40;48.53;;;19.00;99.90;;;;;;4952105;28;20049;-37
2022/08/17 07:32:40;;;;;;;77.35;54.17;;;19.30;99.90;;;;;;4951500;28;21015;-37
2022/08/17 07:35:36;;;;;;;72.40;52.00;;;19.40;99.90;;;;;;5053140;28;20084;-37
2022/08/17 07:38:27;;;;;;;74.03;53.83;;;19.30;99.90;;;;;;5052324;28;20101;-37
2022/08/17 07:41:01;;;;;;;80.82;55.53;;;19.50;99.90;;;;;;5052760;28;20029;-37
2022/08/17 07:43:59;;;;;;;85.63;55.63;;;19.80;99.90;;;;;;5052196;28;20040;-38
2022/08/17 07:49:34;;;;;;;70.28;53.08;;;19.50;99.90;;;;;;5014685;28;20053;-37
2022/08/17 07:52:10;;;;;;;64.18;50.05;;;20.30;99.90;;;;;;5015031;28;20045;-37
2022/08/17 07:54:41;;;;;;;64.15;49.85;;;19.50;99.90;;;;;;5017444;28;20041;-37
2022/08/17 07:57:11;;;;;;;84.22;57.72;;;19.60;99.90;;;;;;5019228;28;20076;-37
2022/08/17 08:00:02;;;;;;;75.30;54.58;;;21.80;99.90;;;;;;5017965;28;20136;-37
2022/08/17 08:02:39;;;;;;;78.25;55.22;;;19.70;99.90;;;;;;5017757;28;20140;-37
2022/08/17 08:05:12;;;;;;;78.55;57.88;;;21.70;99.90;;;;;;5021634;28;20052;-37
2022/08/17 08:07:49;;;;;;;66.65;51.13;;;20.10;99.90;;;;;;5019164;28;20406;-37
2022/08/17 08:10:37;;;;;;;79.03;54.72;;;19.50;99.90;;;;;;5019756;28;20050;-37
2022/08/17 08:13:08;;;;;;;71.25;52.97;;;19.60;99.90;;;;;;5018470;28;20048;-37
2022/08/17 08:15:36;;;;;;;60.33;50.20;;;19.40;99.90;;;;;;5018703;28;20077;-37
2022/08/17 08:18:04;;;;;;;71.72;55.53;;;19.60;99.90;;;;;;5017059;28;20414;-37
2022/08/17 08:20:48;;;;;;;80.15;58.10;;;19.70;99.90;;;;;;5004123;28;20060;-37
2022/08/17 08:23:35;;;;;;;69.53;54.47;;;19.50;99.90;;;;;;5058153;28;20055;-37
2022/08/17 08:26:39;;;;;;;81.70;56.53;;;18.00;99.90;;;;;;5057999;28;20121;-36
2022/08/17 08:29:36;;;;;;;82.05;56.58;;;19.60;99.90;;;;;;5055816;28;20055;-36
2022/08/17 08:32:19;;;;;;;69.78;52.63;;;19.70;99.90;;;;;;5056969;28;20501;-37
2022/08/17 08:35:07;;;;;;;65.78;51.20;;;19.70;99.90;;;;;;5055536;28;20055;-37
2022/08/17 08:37:50;;;;;;;80.93;55.08;;;19.80;99.90;;;;;;5055776;28;20603;-37
2022/08/17 08:40:35;;;;;;;62.22;48.60;;;19.70;99.90;;;;;;5056431;28;20081;-37
2022/08/17 08:43:12;;;;;;;72.63;53.20;;;19.60;99.90;;;;;;5056301;28;20036;-37
2022/08/17 08:45:47;;;;;;;63.97;46.60;;;22.10;99.90;;;;;;5056765;28;20123;-37
2022/08/17 08:48:35;;;;;;;57.95;47.22;;;20.00;99.90;;;;;;5055505;28;20033;-37
2022/08/17 08:51:20;;;;;;;60.72;45.08;;;19.90;99.90;;;;;;5056380;28;20513;-38
2022/08/17 08:54:09;;;;;;;61.42;45.90;;;19.90;99.90;;;;;;5056508;28;20656;-37
2022/08/17 08:57:13;;;;;;;72.68;52.58;;;19.60;99.90;;;;;;5056772;28;20454;-39
2022/08/17 08:59:59;;;;;;;75.43;51.38;;;19.90;99.90;;;;;;5055438;28;20212;-38
2022/08/17 09:02:32;;;;;;;55.28;43.97;;;20.00;99.90;;;;;;5054244;28;20580;-38
2022/08/17 09:05:22;;;;;;;64.63;48.72;;;20.20;99.90;;;;;;5055245;28;20040;-39
2022/08/17 09:08:08;;;;;;;67.75;51.70;;;19.80;99.90;;;;;;5055042;28;20037;-38
2022/08/17 09:10:43;;;;;;;63.90;50.58;;;22.10;99.90;;;;;;5055402;28;20074;-38
2022/08/17 09:13:35;;;;;;;66.47;50.08;;;20.00;99.90;;;;;;5056334;28;20589;-39
2022/08/17 09:16:15;;;;;;;66.57;50.13;;;20.40;99.90;;;;;;5056779;28;20079;-38
2022/08/17 09:18:50;;;;;;;65.63;52.00;;;20.60;99.90;;;;;;5055508;28;20036;-38
2022/08/17 09:21:37;;;;;;;57.78;48.35;;;20.70;99.90;;;;;;5056348;28;20055;-37
2022/08/17 09:24:26;;;;;;;67.60;53.08;;;21.30;99.90;;;;;;5057240;28;20048;-37
2022/08/17 09:27:25;;;;;;;46.22;41.22;;;21.40;99.90;;;;;;5055479;28;20042;-37
2022/08/17 09:29:57;;;;;;;50.10;44.80;;;21.70;99.90;;;;;;5057092;28;20051;-37
2022/08/17 09:32:26;;;;;;;50.42;44.83;;;21.70;99.90;;;;;;5056511;28;20470;-38
2022/08/17 09:34:55;;;;;;;43.55;38.85;;;21.70;99.90;;;;;;5056352;28;20074;-38
2022/08/17 09:37:47;;;;;;;46.42;41.65;;;21.90;99.90;;;;;;5053638;28;20094;-38
2022/08/17 09:40:23;;;;;;;44.28;39.58;;;21.70;99.90;;;;;;5052012;28;20079;-37
2022/08/17 09:43:43;;;;;;;38.10;34.15;;;21.80;99.90;;;;;;5055433;28;20130;-37
2022/08/17 09:46:24;;;;;;;42.35;38.00;;;21.70;99.90;;;;;;5032156;28;20087;-37
2022/08/17 09:48:58;;;;;;;43.75;39.30;;;21.30;99.90;;;;;;5031801;28;20045;-37
2022/08/17 09:51:32;;;;;;;42.47;38.35;;;21.20;99.90;;;;;;5031927;28;20052;-38
2022/08/17 09:53:58;;;;;;;38.03;33.97;;;21.00;99.90;;;;;;5032940;28;20091;-37
2022/08/17 09:56:31;;;;;;;38.17;34.33;;;21.20;99.90;;;;;;5031391;28;20056;-37
2022/08/17 09:59:08;;;;;;;41.08;37.00;;;21.20;99.90;;;;;;5032942;28;20155;-38
2022/08/17 10:01:42;;;;;;;35.78;32.08;;;21.00;99.90;;;;;;5031306;28;20901;-37
2022/08/17 10:04:13;;;;;;;34.90;31.42;;;21.10;99.90;;;;;;5031978;28;20116;-37
2022/08/17 10:06:57;;;;;;;31.27;28.00;;;21.10;99.90;;;;;;5031826;28;20053;-37
2022/08/17 10:09:56;;;;;;;31.42;28.33;;;20.90;99.90;;;;;;5032083;28;20391;-37
2022/08/17 10:12:34;;;;;;;32.38;28.92;;;21.00;99.90;;;;;;5031938;28;20414;-37
2022/08/17 10:15:37;;;;;;;32.13;28.98;;;21.00;99.90;;;;;;5032796;28;20422;-37
2022/08/17 10:18:20;;;;;;;31.92;28.92;;;21.30;99.90;;;;;;4972378;28;20126;-37
2022/08/17 10:26:35;;;;;;;35.72;32.35;;;21.40;99.90;;;;;;4991825;28;20053;-37
2022/08/17 10:29:18;;;;;;;34.17;30.83;;;21.50;99.90;;;;;;4992722;28;20082;-37
2022/08/17 10:32:03;;;;;;;36.53;32.90;;;21.50;99.90;;;;;;4992910;28;20085;-39
2022/08/17 10:35:00;;;;;;;36.10;32.53;;;21.70;99.90;;;;;;4992838;28;20485;-37
2022/08/17 10:37:53;;;;;;;37.08;33.20;;;21.40;99.90;;;;;;4952615;28;20050;-37
2022/08/17 10:40:44;;;;;;;38.38;34.47;;;21.60;99.90;;;;;;4953264;28;20050;-37
2022/08/17 10:43:47;;;;;;;38.97;33.90;;;21.80;99.90;;;;;;4969442;28;20070;-37
2022/08/17 10:46:21;;;;;;;36.92;33.22;;;21.60;99.90;;;;;;4952965;28;20050;-38
2022/08/17 10:49:21;;;;;;;37.75;33.75;;;21.50;99.90;;;;;;4952243;28;20166;-37
2022/08/17 10:51:53;;;;;;;36.53;32.72;;;21.60;99.90;;;;;;4951804;28;20126;-38
2022/08/17 10:54:24;;;;;;;34.42;31.02;;;21.40;99.90;;;;;;4976448;28;20439;-38
2022/08/17 10:56:55;;;;;;;34.45;30.83;;;21.50;99.90;;;;;;5010749;28;20609;-37
2022/08/17 10:59:35;;;;;;;35.23;29.80;;;21.50;99.90;;;;;;5007685;28;20042;-38
2022/08/17 11:02:29;;;;;;;30.42;27.35;;;23.30;99.90;;;;;;5008617;28;20460;-37
2022/08/17 11:05:07;;;;;;;31.20;27.45;;;21.60;99.90;;;;;;5009828;28;20071;-37
2022/08/17 11:07:48;;;;;;;28.27;25.27;;;21.60;99.90;;;;;;5009695;28;20268;-37
2022/08/17 11:10:34;;;;;;;28.85;25.73;;;21.80;99.90;;;;;;5009333;28;20046;-39
2022/08/17 11:13:26;;;;;;;27.33;23.70;;;21.60;99.90;;;;;;5008904;28;20044;-38
2022/08/17 11:16:15;;;;;;;28.80;23.75;;;21.60;99.90;;;;;;5051728;28;20068;-38
2022/08/17 11:19:08;;;;;;;29.00;24.88;;;21.60;99.90;;;;;;5028341;28;20045;-38
2022/08/17 11:21:57;;;;;;;27.30;24.45;;;21.60;99.90;;;;;;5029404;28;20072;-38
2022/08/17 11:24:36;;;;;;;30.10;26.60;;;21.50;99.90;;;;;;5013056;28;20139;-37
2022/08/17 11:27:25;;;;;;;31.02;25.30;;;22.40;99.90;;;;;;5012729;28;20052;-38
2022/08/17 11:29:56;;;;;;;29.13;26.23;;;21.70;99.90;;;;;;5013057;28;20217;-38
2022/08/17 11:32:51;;;;;;;30.08;26.77;;;21.80;99.90;;;;;;5029127;28;20659;-37
2022/08/17 11:35:19;;;;;;;28.40;24.30;;;21.80;99.90;;;;;;5029483;28;20071;-38
2022/08/17 11:37:53;;;;;;;29.45;25.70;;;23.00;99.90;;;;;;5028355;28;20172;-38
2022/08/17 11:40:56;;;;;;;28.30;24.52;;;22.10;99.90;;;;;;5030095;28;20037;-38
2022/08/17 11:43:47;;;;;;;28.45;25.70;;;22.10;99.90;;;;;;5030454;28;20052;-38
2022/08/17 11:52:41;;;;;;;27.55;24.75;;;22.50;99.90;;;;;;5029794;28;20519;-38
2022/08/17 11:55:34;;;;;;;28.70;25.90;;;22.30;99.90;;;;;;5035912;28;21236;-38
2022/08/17 11:58:28;;;;;;;28.35;25.48;;;22.30;99.90;;;;;;5030169;28;20106;-38
2022/08/17 12:01:00;;;;;;;27.65;24.67;;;22.30;99.90;;;;;;5030406;28;20033;-38
2022/08/17 12:03:31;;;;;;;30.63;26.67;;;22.10;99.90;;;;;;5030744;28;20336;-38
2022/08/17 12:06:16;;;;;;;;;;;22.10;99.90;;;;;;5030863;28;20056;-38
2022/08/17 12:08:52;;;;;;;28.17;25.15;;;22.10;99.90;;;;;;5028646;28;20801;-38
2022/08/17 12:11:41;;;;;;;26.20;23.60;;;22.00;99.90;;;;;;5013155;28;20056;-39
2022/08/17 12:14:09;;;;;;;25.58;23.00;;;22.20;99.90;;;;;;4990520;28;20053;-39
2022/08/17 12:16:34;;;;;;;29.45;26.48;;;22.70;99.90;;;;;;4990360;28;20133;-39
2022/08/17 12:19:02;;;;;;;26.23;23.35;;;22.40;99.90;;;;;;4990934;28;20414;-38
2022/08/17 12:21:47;;;;;;;29.70;24.48;;;22.40;99.90;;;;;;4990368;28;20594;-39
2022/08/17 12:24:44;;;;;;;26.75;22.50;;;22.20;99.90;;;;;;4990915;28;20488;-39
2022/08/17 12:27:11;;;;;;;25.48;21.50;;;23.20;99.90;;;;;;4990643;28;20643;-39
2022/08/17 12:29:41;;;;;;;23.23;20.80;;;22.30;99.90;;;;;;4990063;28;20417;-40
2022/08/17 12:32:17;;;;;;;22.77;20.33;;;23.20;99.90;;;;;;5006691;28;20486;-41
2022/08/17 12:34:44;;;;;;;23.15;20.90;;;22.50;99.90;;;;;;4989706;28;20057;-39
2022/08/17 12:37:17;;;;;;;23.30;20.85;;;22.40;99.90;;;;;;4990003;28;20418;-39
2022/08/17 12:39:55;;;;;;;23.48;20.83;;;22.40;99.90;;;;;;4992004;28;20518;-40
2022/08/17 12:42:33;;;;;;;23.52;20.75;;;24.50;99.90;;;;;;4993448;28;20131;-39
2022/08/17 12:44:59;;;;;;;23.05;20.63;;;22.40;99.90;;;;;;4994981;28;20329;-39
2022/08/17 12:47:28;;;;;;;23.52;19.63;;;22.20;99.90;;;;;;4977321;28;20197;-41
2022/08/17 12:50:07;;;;;;;22.10;17.83;;;22.40;99.90;;;;;;4993389;28;20420;-39
2022/08/17 12:52:37;;;;;;;17.10;15.50;;;24.30;99.90;;;;;;5057005;28;20063;-39
2022/08/17 12:55:26;;;;;;;21.50;16.15;;;22.10;99.90;;;;;;5056793;28;20054;-42
2022/08/17 12:57:55;;;;;;;19.40;16.83;;;22.30;99.90;;;;;;5055238;28;20105;-41
2022/08/17 13:00:41;;;;;;;16.38;13.45;;;22.10;99.90;;;;;;5057233;28;20047;-39
2022/08/17 13:03:19;;;;;;;18.55;15.90;;;21.90;99.90;;;;;;5056439;28;20810;-39
2022/08/17 13:05:51;;;;;;;19.48;14.98;;;21.90;99.90;;;;;;5056066;28;20123;-40
2022/08/17 13:08:19;;;;;;;16.80;14.95;;;24.00;99.90;;;;;;5054630;28;20274;-39
2022/08/17 13:10:57;;;;;;;19.30;16.08;;;22.10;99.90;;;;;;5056173;28;20463;-39
2022/08/17 13:13:29;;;;;;;18.58;16.02;;;22.50;99.90;;;;;;5056032;28;20044;-39
2022/08/17 13:16:13;;;;;;;17.15;14.55;;;22.00;99.90;;;;;;5056081;28;20076;-40
2022/08/17 13:18:43;;;;;;;14.00;11.13;;;22.10;99.90;;;;;;5087668;28;20040;-39
2022/08/17 13:21:18;;;;;;;18.95;12.63;;;22.00;99.90;;;;;;5055297;28;20040;-39
2022/08/17 13:24:09;;;;;;;17.00;11.63;;;22.10;99.90;;;;;;5056153;28;20086;-39
2022/08/17 13:26:38;;;;;;;15.45;12.18;;;22.10;99.90;;;;;;5053454;28;20094;-41
2022/08/17 13:29:22;;;;;;;18.13;13.75;;;22.10;99.90;;;;;;5054813;28;20052;-39
2022/08/17 13:32:11;;;;;;;19.45;14.30;;;19.90;99.90;;;;;;5053897;28;20044;-42
2022/08/17 13:34:55;;;;;;;16.35;14.00;;;22.00;99.90;;;;;;5055274;28;20077;-39
2022/08/17 13:37:31;;;;;;;19.92;13.63;;;21.90;99.90;;;;;;5055039;28;20051;-39